4XCDL LLHZ-LLHZ

Flight info

Callsign 4XCDL
Flight time 0h 5m
Altitude 800
Route ROUNDERS
Aircraft C152/L-V/N

Departure

Time 2026-04-22 18:13
Airport Herzliya Airport (LLHZ)

Arrival

Time 2026-04-22 18:18
Airport Herzliya Airport (LLHZ)
Time Latitude Longitude Altitude Speed Heading
2026-04-22 18:06 32.18022 34.83307 106 ft 0 kts 20°
2026-04-22 18:10 32.18032 34.83322 105 ft 3 kts 87°
2026-04-22 18:10 32.18022 34.83364 106 ft 6 kts 109°
2026-04-22 18:10 32.18005 34.83423 108 ft 8 kts 110°
2026-04-22 18:10 32.17984 34.83492 109 ft 12 kts 108°
2026-04-22 18:11 32.17951 34.83603 112 ft 15 kts 109°
2026-04-22 18:11 32.17922 34.83699 118 ft 10 kts 108°
2026-04-22 18:11 32.17903 34.83764 121 ft 9 kts 108°
2026-04-22 18:11 32.17881 34.83839 122 ft 6 kts 106°
2026-04-22 18:12 32.17880 34.83848 123 ft 0 kts 90°
2026-04-22 18:12 32.17916 34.83834 124 ft 19 kts 290°
2026-04-22 18:12 32.17978 34.83644 115 ft 55 kts 292°
2026-04-22 18:12 32.18182 34.82958 263 ft 67 kts 297°
2026-04-22 18:13 32.18479 34.82740 459 ft 53 kts 12°
2026-04-22 18:13 32.18858 34.82830 614 ft 52 kts
2026-04-22 18:13 32.19178 34.82999 767 ft 59 kts 43°
2026-04-22 18:13 32.19200 34.83547 898 ft 79 kts 103°
2026-04-22 18:14 32.18900 34.84199 748 ft 94 kts 109°
2026-04-22 18:14 32.18631 34.84875 740 ft 89 kts 108°
2026-04-22 18:14 32.18179 34.85264 780 ft 92 kts 192°
2026-04-22 18:14 32.17751 34.84912 634 ft 64 kts 274°
2026-04-22 18:15 32.17748 34.84393 369 ft 61 kts 292°
2026-04-22 18:15 32.17890 34.83936 196 ft 58 kts 297°
2026-04-22 18:15 32.18021 34.83511 120 ft 62 kts 294°
2026-04-22 18:15 32.18173 34.83002 237 ft 69 kts 300°
2026-04-22 18:16 32.18485 34.82683 374 ft 63 kts 11°
2026-04-22 18:16 32.18890 34.82854 516 ft 60 kts 12°
2026-04-22 18:16 32.19247 34.83072 701 ft 65 kts 44°
2026-04-22 18:16 32.19186 34.83664 720 ft 91 kts 117°
2026-04-22 18:17 32.18881 34.84235 798 ft 77 kts 110°
2026-04-22 18:17 32.18626 34.84804 775 ft 84 kts 107°
2026-04-22 18:17 32.18218 34.85275 690 ft 88 kts 178°
2026-04-22 18:17 32.17727 34.85026 596 ft 65 kts 255°
2026-04-22 18:18 32.17707 34.84523 388 ft 60 kts 295°
2026-04-22 18:18 32.17851 34.84037 229 ft 66 kts 294°
2026-04-22 18:18 32.17995 34.83580 110 ft 49 kts 288°
2026-04-22 18:18 32.18138 34.83106 173 ft 67 kts 296°
2026-04-22 18:19 32.18384 34.82704 348 ft 58 kts 348°
2026-04-22 18:19 32.18748 34.82774 510 ft 53 kts 11°
2026-04-22 18:19 32.19132 34.82901 600 ft 63 kts 13°
2026-04-22 18:19 32.19575 34.83071 673 ft 66 kts 12°
2026-04-22 18:20 32.19916 34.83344 804 ft 66 kts 59°
2026-04-22 18:20 32.19805 34.83935 850 ft 88 kts 112°
2026-04-22 18:20 32.19469 34.84584 820 ft 93 kts 116°
2026-04-22 18:20 32.19125 34.85246 691 ft 91 kts 118°
2026-04-22 18:21 32.18569 34.85407 668 ft 85 kts 197°
2026-04-22 18:21 32.17994 34.85238 574 ft 78 kts 197°
2026-04-22 18:21 32.17667 34.84918 538 ft 58 kts 275°
2026-04-22 18:21 32.17736 34.84474 378 ft 55 kts 299°
2026-04-22 18:22 32.17857 34.84041 214 ft 54 kts 295°
2026-04-22 18:22 32.17983 34.83621 113 ft 56 kts 297°
2026-04-22 18:22 32.18130 34.83119 203 ft 69 kts 296°
2026-04-22 18:22 32.18378 34.82710 399 ft 55 kts 353°
2026-04-22 18:23 32.18762 34.82797 516 ft 58 kts 12°
2026-04-22 18:23 32.19134 34.82935 710 ft 57 kts 24°
2026-04-22 18:23 32.19538 34.83201 720 ft 71 kts 12°
2026-04-22 18:24 32.19273 34.84100 834 ft 95 kts 129°
2026-04-22 18:24 32.18836 34.84703 784 ft 95 kts 121°
2026-04-22 18:24 32.17892 34.85202 563 ft 84 kts 201°
2026-04-22 18:25 32.17666 34.84788 503 ft 60 kts 286°
2026-04-22 18:25 32.17775 34.84331 334 ft 57 kts 291°
2026-04-22 18:25 32.17899 34.83901 165 ft 55 kts 296°
2026-04-22 18:26 32.18186 34.82956 251 ft 69 kts 296°
2026-04-22 18:26 32.18477 34.82702 408 ft 54 kts 13°
2026-04-22 18:26 32.18855 34.82813 477 ft 61 kts
2026-04-22 18:26 32.19283 34.82932 592 ft 63 kts 13°
2026-04-22 18:27 32.19720 34.83080 616 ft 66 kts 12°
2026-04-22 18:27 32.20086 34.83395 742 ft 73 kts 58°
2026-04-22 18:27 32.19970 34.83992 894 ft 83 kts 107°
2026-04-22 18:27 32.19718 34.84604 857 ft 86 kts 107°
2026-04-22 18:28 32.19462 34.85228 785 ft 83 kts 108°
2026-04-22 18:28 32.19002 34.85508 681 ft 81 kts 195°
2026-04-22 18:28 32.18465 34.85344 606 ft 81 kts 191°
2026-04-22 18:28 32.17893 34.85217 605 ft 74 kts 199°
2026-04-22 18:29 32.17654 34.84795 553 ft 63 kts 275°
2026-04-22 18:29 32.17713 34.84485 452 ft 58 kts 298°
2026-04-22 18:29 32.17903 34.83883 155 ft 54 kts 294°
2026-04-22 18:29 32.17987 34.83609 112 ft 60 kts 295°
2026-04-22 18:30 32.18150 34.83090 194 ft 74 kts 298°
2026-04-22 18:30 32.18838 34.82798 478 ft 64 kts
2026-04-22 18:30 32.19242 34.82996 601 ft 66 kts 40°
2026-04-22 18:31 32.19270 34.83529 744 ft 68 kts 101°
2026-04-22 18:31 32.19008 34.84095 805 ft 84 kts 110°
2026-04-22 18:31 32.18716 34.84714 821 ft 93 kts 111°
2026-04-22 18:31 32.18329 34.85296 679 ft 90 kts 161°
2026-04-22 18:32 32.17776 34.85138 562 ft 71 kts 227°
2026-04-22 18:32 32.17659 34.84678 437 ft 56 kts 287°
2026-04-22 18:32 32.17799 34.84251 276 ft 56 kts 298°
2026-04-22 18:32 32.17919 34.83828 124 ft 51 kts 296°
2026-04-22 18:33 32.18059 34.83361 144 ft 71 kts 297°
2026-04-22 18:33 32.18244 34.82818 299 ft 68 kts 314°
2026-04-22 18:33 32.18610 34.82750 483 ft 56 kts 21°
2026-04-22 18:33 32.19002 34.82896 600 ft 59 kts
2026-04-22 18:34 32.19299 34.83196 727 ft 65 kts 62°
2026-04-22 18:34 32.19184 34.83757 832 ft 82 kts 115°
2026-04-22 18:34 32.18856 34.84348 849 ft 89 kts 113°
2026-04-22 18:34 32.18583 34.85004 787 ft 89 kts 105°
2026-04-22 18:35 32.18073 34.85243 685 ft 85 kts 196°
2026-04-22 18:35 32.17696 34.84889 567 ft 65 kts 270°
2026-04-22 18:35 32.17751 34.84380 397 ft 62 kts 300°
2026-04-22 18:35 32.17893 34.83921 164 ft 59 kts 295°
2026-04-22 18:36 32.18024 34.83465 156 ft 65 kts 297°
2026-04-22 18:36 32.18183 34.82950 311 ft 67 kts 295°
2026-04-22 18:36 32.18469 34.82671 441 ft 57 kts 14°
2026-04-22 18:36 32.18852 34.82837 540 ft 62 kts
2026-04-22 18:37 32.19290 34.82938 574 ft 66 kts 12°
2026-04-22 18:37 32.19728 34.83081 660 ft 67 kts 12°
2026-04-22 18:37 32.20104 34.83390 844 ft 74 kts 72°
2026-04-22 18:37 32.19913 34.84030 853 ft 89 kts 108°
2026-04-22 18:38 32.19607 34.84644 828 ft 86 kts 114°
2026-04-22 18:38 32.19268 34.85239 759 ft 86 kts 121°
2026-04-22 18:38 32.18750 34.85462 743 ft 85 kts 194°
2026-04-22 18:39 32.17698 34.85025 545 ft 67 kts 258°
2026-04-22 18:39 32.17703 34.84534 425 ft 60 kts 301°
2026-04-22 18:39 32.17850 34.84049 216 ft 60 kts 294°
2026-04-22 18:39 32.17981 34.83606 128 ft 61 kts 296°
2026-04-22 18:40 32.18139 34.83096 253 ft 69 kts 295°
2026-04-22 18:40 32.18395 34.82673 400 ft 64 kts 351°
2026-04-22 18:40 32.18798 34.82801 570 ft 55 kts 10°
2026-04-22 18:40 32.19161 34.82918 649 ft 53 kts 28°
2026-04-22 18:41 32.19309 34.83370 730 ft 70 kts 91°
2026-04-22 18:41 32.19055 34.83886 871 ft 75 kts 113°
2026-04-22 18:41 32.18813 34.84476 772 ft 85 kts 105°
2026-04-22 18:41 32.18584 34.85109 750 ft 81 kts 116°
2026-04-22 18:42 32.18064 34.85270 660 ft 83 kts 196°
2026-04-22 18:42 32.17681 34.84949 545 ft 60 kts 269°
2026-04-22 18:42 32.17730 34.84462 405 ft 60 kts 298°
2026-04-22 18:42 32.17865 34.84015 196 ft 54 kts 294°
2026-04-22 18:43 32.17969 34.83666 114 ft 33 kts 286°
2026-04-22 18:43 32.18026 34.83479 105 ft 18 kts 289°
2026-04-22 18:43 32.18060 34.83352 101 ft 9 kts 269°
2026-04-22 18:43 32.18043 34.83329 103 ft 7 kts 232°
2026-04-22 18:44 32.18048 34.83277 102 ft 8 kts 290°
2026-04-22 18:44 32.18068 34.83205 100 ft 12 kts 293°
2026-04-22 18:44 32.18098 34.83103 98 ft 12 kts 290°
2026-04-22 18:44 32.18111 34.83063 97 ft 5 kts 291°
2026-04-22 18:45 32.18123 34.83037 97 ft 2 kts 300°
2026-04-22 18:45 32.18129 34.83024 96 ft 6 kts 298°
2026-04-22 18:45 32.18156 34.82957 95 ft 11 kts 288°
2026-04-22 18:45 32.18181 34.82874 95 ft 10 kts 289°
2026-04-22 18:46 32.18207 34.82818 95 ft 6 kts 349°
2026-04-22 18:46 32.18236 34.82825 95 ft 3 kts 19°
2026-04-22 18:46 32.18252 34.82836 95 ft 1 kts 335°
2026-04-22 18:46 32.18254 34.82832 95 ft 1 kts 287°
2026-04-22 18:47 32.18254 34.82828 95 ft 0 kts 247°